Fort Jones, California
Current Conditions -  °F | °C
As of 5:53 PM on Monday 22 Dec 2014 (Local Time) from KSIY Reporting Station
Overcast Overcast  
Wind Chill: 51°   Ceiling: 4100
Heat Index: 51°   Visibility: 10mi
Dew Point: 47°   Wind: 3mph
Humidity: 86%   Direction: 340°NNW
Pressure: 30.33"   Gusts: NA
Location:  41.61°N, 122.84°W
Report Text: KSIY 230153Z AUTO 34003KT 10SM OVC041 11/08 A3033 RMK AO2 SLP280 T01060083
Loading
Personal Weather Stations






























Interactive Weather Map New forecast layout! Learn more

10-Day Weather Forecast

Advertisements
Track Severe Weather on mobile